sensor_id;sensor_type;location;lat;lon;timestamp;pressure;altitude;pressure_sealevel;temperature;humidity
27984;BME280;15317;50.360;8.726;2023-05-10T00:03:08;98800.31;;;13.41;100.00
27984;BME280;15317;50.360;8.726;2023-05-10T00:08:13;98790.22;;;13.21;100.00
27984;BME280;15317;50.360;8.726;2023-05-10T00:13:16;98790.59;;;13.18;100.00
27984;BME280;15317;50.360;8.726;2023-05-10T00:18:19;98786.06;;;13.10;100.00
27984;BME280;15317;50.360;8.726;2023-05-10T00:23:23;98765.88;;;13.04;100.00
27984;BME280;15317;50.360;8.726;2023-05-10T00:28:27;98765.56;;;12.93;100.00
27984;BME280;15317;50.360;8.726;2023-05-10T00:33:30;98773.06;;;12.91;100.00
27984;BME280;15317;50.360;8.726;2023-05-10T00:38:34;98768.97;;;12.80;100.00
27984;BME280;15317;50.360;8.726;2023-05-10T00:43:37;98770.28;;;12.84;100.00
27984;BME280;15317;50.360;8.726;2023-05-10T00:48:40;98786.63;;;12.84;100.00
27984;BME280;15317;50.360;8.726;2023-05-10T00:53:45;98774.78;;;12.77;100.00
27984;BME280;15317;50.360;8.726;2023-05-10T00:58:49;98790.28;;;12.77;100.00
27984;BME280;15317;50.360;8.726;2023-05-10T01:03:52;98788.56;;;12.69;100.00
27984;BME280;15317;50.360;8.726;2023-05-10T01:08:56;98784.69;;;12.63;100.00
27984;BME280;15317;50.360;8.726;2023-05-10T01:13:59;98786.38;;;12.64;100.00
27984;BME280;15317;50.360;8.726;2023-05-10T01:19:04;98783.56;;;12.58;100.00
27984;BME280;15317;50.360;8.726;2023-05-10T01:24:35;98788.25;;;12.49;100.00
27984;BME280;15317;50.360;8.726;2023-05-10T01:30:06;98801.16;;;12.41;100.00
27984;BME280;15317;50.360;8.726;2023-05-10T01:35:31;98798.13;;;12.36;100.00
27984;BME280;15317;50.360;8.726;2023-05-10T01:40:42;98803.13;;;12.32;100.00
27984;BME280;15317;50.360;8.726;2023-05-10T01:45:57;98803.97;;;12.33;100.00
27984;BME280;15317;50.360;8.726;2023-05-10T01:51:04;98814.19;;;12.31;100.00
27984;BME280;15317;50.360;8.726;2023-05-10T01:56:09;98818.97;;;12.28;100.00
27984;BME280;15317;50.360;8.726;2023-05-10T02:01:14;98826.50;;;12.26;100.00
27984;BME280;15317;50.360;8.726;2023-05-10T02:06:20;98840.41;;;12.32;100.00
27984;BME280;15317;50.360;8.726;2023-05-10T02:11:24;98847.53;;;12.33;100.00
27984;BME280;15317;50.360;8.726;2023-05-10T02:16:29;98859.19;;;12.26;100.00
27984;BME280;15317;50.360;8.726;2023-05-10T02:21:35;98861.59;;;12.21;100.00
27984;BME280;15317;50.360;8.726;2023-05-10T02:26:40;98860.66;;;12.14;100.00
27984;BME280;15317;50.360;8.726;2023-05-10T02:31:45;98862.34;;;12.15;100.00
27984;BME280;15317;50.360;8.726;2023-05-10T02:36:50;98864.41;;;12.13;100.00
27984;BME280;15317;50.360;8.726;2023-05-10T02:41:56;98868.34;;;12.11;100.00
27984;BME280;15317;50.360;8.726;2023-05-10T02:47:00;98868.53;;;12.09;100.00
27984;BME280;15317;50.360;8.726;2023-05-10T02:52:05;98868.53;;;12.09;100.00
27984;BME280;15317;50.360;8.726;2023-05-10T02:57:15;98885.88;;;12.08;100.00
27984;BME280;15317;50.360;8.726;2023-05-10T03:02:20;98880.16;;;12.03;100.00
27984;BME280;15317;50.360;8.726;2023-05-10T03:07:25;98889.66;;;12.07;100.00
27984;BME280;15317;50.360;8.726;2023-05-10T03:12:38;98888.97;;;12.05;100.00
27984;BME280;15317;50.360;8.726;2023-05-10T03:17:55;98893.19;;;12.08;100.00
27984;BME280;15317;50.360;8.726;2023-05-10T03:23:04;98896.75;;;12.08;100.00
27984;BME280;15317;50.360;8.726;2023-05-10T03:28:11;98902.31;;;12.15;100.00
27984;BME280;15317;50.360;8.726;2023-05-10T03:33:14;98906.63;;;12.09;100.00
27984;BME280;15317;50.360;8.726;2023-05-10T03:38:19;98903.56;;;12.12;100.00
27984;BME280;15317;50.360;8.726;2023-05-10T03:43:22;98905.59;;;12.10;100.00
27984;BME280;15317;50.360;8.726;2023-05-10T03:48:25;98915.47;;;12.11;100.00
27984;BME280;15317;50.360;8.726;2023-05-10T03:53:30;98916.03;;;12.21;100.00
27984;BME280;15317;50.360;8.726;2023-05-10T03:58:33;98914.91;;;12.16;100.00
27984;BME280;15317;50.360;8.726;2023-05-10T04:03:36;98920.56;;;12.14;100.00
27984;BME280;15317;50.360;8.726;2023-05-10T04:08:41;98927.56;;;12.09;100.00
27984;BME280;15317;50.360;8.726;2023-05-10T04:13:44;98933.38;;;12.06;100.00
27984;BME280;15317;50.360;8.726;2023-05-10T04:18:47;98934.03;;;12.08;100.00
27984;BME280;15317;50.360;8.726;2023-05-10T04:23:52;98938.56;;;12.15;100.00
27984;BME280;15317;50.360;8.726;2023-05-10T04:28:55;98936.22;;;12.12;100.00
27984;BME280;15317;50.360;8.726;2023-05-10T04:33:58;98931.78;;;12.11;100.00
27984;BME280;15317;50.360;8.726;2023-05-10T04:39:03;98943.47;;;12.20;100.00
27984;BME280;15317;50.360;8.726;2023-05-10T04:44:07;98951.53;;;12.13;100.00
27984;BME280;15317;50.360;8.726;2023-05-10T04:49:10;98947.78;;;12.14;100.00
27984;BME280;15317;50.360;8.726;2023-05-10T04:54:14;98951.53;;;12.13;100.00
27984;BME280;15317;50.360;8.726;2023-05-10T04:59:17;98947.22;;;12.19;100.00
27984;BME280;15317;50.360;8.726;2023-05-10T05:04:21;98956.81;;;12.30;100.00
27984;BME280;15317;50.360;8.726;2023-05-10T05:09:26;98954.28;;;12.28;100.00
27984;BME280;15317;50.360;8.726;2023-05-10T05:14:29;98954.03;;;12.38;100.00
27984;BME280;15317;50.360;8.726;2023-05-10T05:19:32;98952.44;;;12.43;100.00
27984;BME280;15317;50.360;8.726;2023-05-10T05:24:37;98954.88;;;12.38;100.00
27984;BME280;15317;50.360;8.726;2023-05-10T05:29:40;98940.00;;;12.26;100.00
27984;BME280;15317;50.360;8.726;2023-05-10T05:34:44;98956.81;;;12.30;100.00
27984;BME280;15317;50.360;8.726;2023-05-10T05:39:48;98959.00;;;12.34;100.00
27984;BME280;15317;50.360;8.726;2023-05-10T05:44:51;98966.22;;;12.27;100.00
27984;BME280;15317;50.360;8.726;2023-05-10T05:49:54;98959.13;;;12.41;100.00
27984;BME280;15317;50.360;8.726;2023-05-10T05:54:59;98976.13;;;12.57;100.00
27984;BME280;15317;50.360;8.726;2023-05-10T06:00:02;98974.66;;;12.55;100.00
27984;BME280;15317;50.360;8.726;2023-05-10T06:05:06;98986.50;;;12.62;100.00
27984;BME280;15317;50.360;8.726;2023-05-10T06:10:11;98981.03;;;12.77;100.00
27984;BME280;15317;50.360;8.726;2023-05-10T06:15:14;98983.03;;;12.68;100.00
27984;BME280;15317;50.360;8.726;2023-05-10T06:20:18;98970.34;;;12.75;100.00
27984;BME280;15317;50.360;8.726;2023-05-10T06:25:23;98974.66;;;12.84;100.00
27984;BME280;15317;50.360;8.726;2023-05-10T06:49:36;98979.69;;;13.75;100.00
27984;BME280;15317;50.360;8.726;2023-05-10T06:54:40;98984.25;;;13.90;100.00
27984;BME280;15317;50.360;8.726;2023-05-10T06:59:53;98978.81;;;13.90;100.00
27984;BME280;15317;50.360;8.726;2023-05-10T07:05:02;98980.50;;;13.91;100.00
27984;BME280;15317;50.360;8.726;2023-05-10T07:10:07;98979.66;;;13.90;100.00
27984;BME280;15317;50.360;8.726;2023-05-10T07:15:19;98996.22;;;13.89;100.00
27984;BME280;15317;50.360;8.726;2023-05-10T07:20:31;98996.34;;;13.80;100.00
27984;BME280;15317;50.360;8.726;2023-05-10T07:31:25;99003.25;;;13.98;100.00
27984;BME280;15317;50.360;8.726;2023-05-10T07:42:58;99007.81;;;14.33;100.00
27984;BME280;15317;50.360;8.726;2023-05-10T07:48:01;99019.97;;;14.45;100.00
27984;BME280;15317;50.360;8.726;2023-05-10T07:53:05;99008.59;;;14.27;100.00
27984;BME280;15317;50.360;8.726;2023-05-10T07:58:09;99017.84;;;14.26;100.00
27984;BME280;15317;50.360;8.726;2023-05-10T08:03:12;99023.50;;;14.24;100.00
27984;BME280;15317;50.360;8.726;2023-05-10T08:08:16;99030.91;;;14.31;100.00
27984;BME280;15317;50.360;8.726;2023-05-10T08:13:20;99024.59;;;14.30;100.00
27984;BME280;15317;50.360;8.726;2023-05-10T08:18:24;99024.47;;;14.17;100.00
27984;BME280;15317;50.360;8.726;2023-05-10T08:23:27;99026.66;;;14.28;100.00
27984;BME280;15317;50.360;8.726;2023-05-10T08:28:31;99017.22;;;14.45;100.00
27984;BME280;15317;50.360;8.726;2023-05-10T08:33:34;99020.31;;;14.63;100.00
27984;BME280;15317;50.360;8.726;2023-05-10T08:38:37;99018.25;;;14.93;100.00
27984;BME280;15317;50.360;8.726;2023-05-10T08:43:43;99025.66;;;14.99;100.00
27984;BME280;15317;50.360;8.726;2023-05-10T08:48:49;99018.34;;;14.79;100.00
27984;BME280;15317;50.360;8.726;2023-05-10T08:53:53;99027.44;;;14.86;100.00
27984;BME280;15317;50.360;8.726;2023-05-10T08:58:58;99032.22;;;14.77;100.00
27984;BME280;15317;50.360;8.726;2023-05-10T09:04:01;99032.56;;;14.95;100.00
27984;BME280;15317;50.360;8.726;2023-05-10T09:09:06;99051.25;;;14.92;100.00
27984;BME280;15317;50.360;8.726;2023-05-10T09:14:12;99047.59;;;14.57;100.00
27984;BME280;15317;50.360;8.726;2023-05-10T09:19:15;99061.38;;;14.13;100.00
27984;BME280;15317;50.360;8.726;2023-05-10T09:24:18;99062.75;;;14.02;100.00
27984;BME280;15317;50.360;8.726;2023-05-10T09:29:22;99080.13;;;14.16;100.00
27984;BME280;15317;50.360;8.726;2023-05-10T09:34:28;99089.19;;;14.52;100.00
27984;BME280;15317;50.360;8.726;2023-05-10T09:39:33;99082.25;;;14.78;100.00
27984;BME280;15317;50.360;8.726;2023-05-10T09:44:37;99077.53;;;15.14;100.00
27984;BME280;15317;50.360;8.726;2023-05-10T09:49:42;99071.81;;;15.43;100.00
27984;BME280;15317;50.360;8.726;2023-05-10T09:54:52;99057.72;;;15.74;100.00
27984;BME280;15317;50.360;8.726;2023-05-10T10:00:00;99074.88;;;15.96;100.00
27984;BME280;15317;50.360;8.726;2023-05-10T10:05:03;99056.84;;;16.28;100.00
27984;BME280;15317;50.360;8.726;2023-05-10T10:10:07;99063.19;;;16.29;100.00
27984;BME280;15317;50.360;8.726;2023-05-10T10:15:14;99058.34;;;16.31;100.00
27984;BME280;15317;50.360;8.726;2023-05-10T10:20:19;99057.41;;;16.10;100.00
27984;BME280;15317;50.360;8.726;2023-05-10T10:25:22;99059.84;;;16.53;100.00
27984;BME280;15317;50.360;8.726;2023-05-10T10:30:31;99052.09;;;17.22;100.00
27984;BME280;15317;50.360;8.726;2023-05-10T10:35:38;99045.06;;;17.59;99.17
27984;BME280;15317;50.360;8.726;2023-05-10T10:40:42;99043.41;;;17.45;100.00
27984;BME280;15317;50.360;8.726;2023-05-10T10:46:09;99036.41;;;17.62;93.43
27984;BME280;15317;50.360;8.726;2023-05-10T10:51:13;99036.81;;;17.72;96.80
27984;BME280;15317;50.360;8.726;2023-05-10T10:56:21;99028.78;;;17.71;85.88
27984;BME280;15317;50.360;8.726;2023-05-10T11:01:32;99039.25;;;17.94;88.15
27984;BME280;15317;50.360;8.726;2023-05-10T11:06:35;99047.88;;;18.04;94.52
27984;BME280;15317;50.360;8.726;2023-05-10T11:11:50;99052.00;;;18.26;99.96
27984;BME280;15317;50.360;8.726;2023-05-10T11:16:55;99055.94;;;18.37;95.22
27984;BME280;15317;50.360;8.726;2023-05-10T11:22:13;99048.75;;;18.36;92.55
27984;BME280;15317;50.360;8.726;2023-05-10T11:27:17;99052.03;;;17.62;95.39
27984;BME280;15317;50.360;8.726;2023-05-10T11:32:21;99064.31;;;17.20;100.00
27984;BME280;15317;50.360;8.726;2023-05-10T11:37:28;99057.53;;;16.50;92.30
27984;BME280;15317;50.360;8.726;2023-05-10T11:42:34;99061.38;;;15.95;97.92
27984;BME280;15317;50.360;8.726;2023-05-10T11:47:38;99070.81;;;15.86;100.00
27984;BME280;15317;50.360;8.726;2023-05-10T11:52:44;99072.16;;;15.96;100.00
27984;BME280;15317;50.360;8.726;2023-05-10T11:57:47;99071.88;;;15.91;100.00
27984;BME280;15317;50.360;8.726;2023-05-10T12:02:52;99076.38;;;16.05;100.00
27984;BME280;15317;50.360;8.726;2023-05-10T12:08:10;99089.94;;;16.27;100.00
27984;BME280;15317;50.360;8.726;2023-05-10T12:13:14;99087.00;;;16.28;100.00
27984;BME280;15317;50.360;8.726;2023-05-10T12:18:22;99100.13;;;16.59;100.00
27984;BME280;15317;50.360;8.726;2023-05-10T12:23:27;99099.94;;;16.54;100.00
27984;BME280;15317;50.360;8.726;2023-05-10T12:28:31;99098.09;;;16.68;98.16
27984;BME280;15317;50.360;8.726;2023-05-10T12:33:39;99109.25;;;16.66;99.23
27984;BME280;15317;50.360;8.726;2023-05-10T12:38:44;99111.91;;;16.40;100.00
27984;BME280;15317;50.360;8.726;2023-05-10T12:43:51;99120.69;;;16.15;100.00
27984;BME280;15317;50.360;8.726;2023-05-10T12:48:55;99124.53;;;16.28;100.00
27984;BME280;15317;50.360;8.726;2023-05-10T12:54:10;99116.03;;;16.70;96.50
27984;BME280;15317;50.360;8.726;2023-05-10T12:59:13;99128.28;;;17.14;95.06
27984;BME280;15317;50.360;8.726;2023-05-10T13:04:18;99122.19;;;17.18;91.22
27984;BME280;15317;50.360;8.726;2023-05-10T13:09:21;99124.28;;;16.96;87.00
27984;BME280;15317;50.360;8.726;2023-05-10T13:14:24;99121.75;;;16.88;93.68
27984;BME280;15317;50.360;8.726;2023-05-10T13:19:29;99131.44;;;16.71;93.25
27984;BME280;15317;50.360;8.726;2023-05-10T13:24:32;99127.09;;;16.42;88.54
27984;BME280;15317;50.360;8.726;2023-05-10T13:29:35;99129.22;;;16.47;93.70
27984;BME280;15317;50.360;8.726;2023-05-10T13:34:39;99133.03;;;16.52;90.40
27984;BME280;15317;50.360;8.726;2023-05-10T13:39:43;99134.31;;;16.56;89.11
27984;BME280;15317;50.360;8.726;2023-05-10T13:44:46;99127.56;;;16.59;94.86
27984;BME280;15317;50.360;8.726;2023-05-10T13:49:50;99122.50;;;16.56;90.33
27984;BME280;15317;50.360;8.726;2023-05-10T13:54:53;99122.88;;;16.46;95.55
27984;BME280;15317;50.360;8.726;2023-05-10T13:59:58;99142.13;;;16.05;100.00
27984;BME280;15317;50.360;8.726;2023-05-10T14:05:03;99134.78;;;15.71;100.00
27984;BME280;15317;50.360;8.726;2023-05-10T14:10:07;99140.66;;;15.40;100.00
27984;BME280;15317;50.360;8.726;2023-05-10T14:15:10;99141.13;;;15.23;100.00
27984;BME280;15317;50.360;8.726;2023-05-10T14:20:15;99139.28;;;15.30;100.00
27984;BME280;15317;50.360;8.726;2023-05-10T14:25:18;99134.28;;;15.33;100.00
27984;BME280;15317;50.360;8.726;2023-05-10T14:30:21;99140.50;;;15.21;100.00
27984;BME280;15317;50.360;8.726;2023-05-10T14:35:26;99142.59;;;14.97;100.00
27984;BME280;15317;50.360;8.726;2023-05-10T14:40:29;99164.91;;;14.58;100.00
27984;BME280;15317;50.360;8.726;2023-05-10T14:45:33;99173.06;;;14.22;100.00
27984;BME280;15317;50.360;8.726;2023-05-10T14:50:37;99195.84;;;14.30;100.00
27984;BME280;15317;50.360;8.726;2023-05-10T14:55:41;99195.94;;;14.51;100.00
27984;BME280;15317;50.360;8.726;2023-05-10T15:00:44;99197.22;;;14.91;100.00
27984;BME280;15317;50.360;8.726;2023-05-10T15:05:50;99174.91;;;15.36;100.00
27984;BME280;15317;50.360;8.726;2023-05-10T15:10:53;99145.94;;;15.42;100.00
27984;BME280;15317;50.360;8.726;2023-05-10T15:15:57;99140.16;;;15.93;100.00
27984;BME280;15317;50.360;8.726;2023-05-10T15:21:02;99132.19;;;16.52;100.00
27984;BME280;15317;50.360;8.726;2023-05-10T15:26:05;99126.91;;;16.44;100.00
27984;BME280;15317;50.360;8.726;2023-05-10T15:31:09;99133.94;;;16.66;100.00
27984;BME280;15317;50.360;8.726;2023-05-10T15:36:14;99133.31;;;16.64;95.28
27984;BME280;15317;50.360;8.726;2023-05-10T15:41:19;99146.63;;;16.74;100.00
27984;BME280;15317;50.360;8.726;2023-05-10T15:46:22;99146.59;;;16.61;100.00
27984;BME280;15317;50.360;8.726;2023-05-10T15:51:27;99151.06;;;16.75;100.00
27984;BME280;15317;50.360;8.726;2023-05-10T15:56:30;99145.59;;;16.94;100.00
27984;BME280;15317;50.360;8.726;2023-05-10T16:01:33;99151.53;;;16.91;100.00
27984;BME280;15317;50.360;8.726;2023-05-10T16:06:38;99156.78;;;16.93;100.00
27984;BME280;15317;50.360;8.726;2023-05-10T16:11:42;99151.47;;;16.72;99.39
27984;BME280;15317;50.360;8.726;2023-05-10T16:16:45;99148.50;;;16.67;100.00
27984;BME280;15317;50.360;8.726;2023-05-10T16:21:51;99150.28;;;16.40;95.94
27984;BME280;15317;50.360;8.726;2023-05-10T16:26:54;99148.97;;;16.23;99.26
27984;BME280;15317;50.360;8.726;2023-05-10T16:31:57;99153.63;;;16.29;100.00
27984;BME280;15317;50.360;8.726;2023-05-10T16:37:02;99168.81;;;16.38;100.00
27984;BME280;15317;50.360;8.726;2023-05-10T16:42:05;99154.50;;;16.36;100.00
27984;BME280;15317;50.360;8.726;2023-05-10T16:47:09;99156.59;;;16.34;100.00
27984;BME280;15317;50.360;8.726;2023-05-10T16:52:13;99155.09;;;16.38;100.00
27984;BME280;15317;50.360;8.726;2023-05-10T16:57:16;99152.78;;;16.35;100.00
27984;BME280;15317;50.360;8.726;2023-05-10T17:02:20;99169.84;;;16.24;100.00
27984;BME280;15317;50.360;8.726;2023-05-10T17:07:25;99172.84;;;15.94;100.00
27984;BME280;15317;50.360;8.726;2023-05-10T17:12:30;99172.25;;;16.05;100.00
27984;BME280;15317;50.360;8.726;2023-05-10T17:17:33;99175.78;;;15.93;100.00
27984;BME280;15317;50.360;8.726;2023-05-10T17:22:38;99195.06;;;15.78;100.00
27984;BME280;15317;50.360;8.726;2023-05-10T17:27:41;99193.31;;;15.70;100.00
27984;BME280;15317;50.360;8.726;2023-05-10T17:32:45;99203.72;;;15.54;100.00
27984;BME280;15317;50.360;8.726;2023-05-10T17:37:49;99196.00;;;15.42;100.00
27984;BME280;15317;50.360;8.726;2023-05-10T17:42:52;99199.06;;;15.26;100.00
27984;BME280;15317;50.360;8.726;2023-05-10T17:47:55;99191.56;;;15.14;100.00
27984;BME280;15317;50.360;8.726;2023-05-10T17:53:00;99203.25;;;15.01;100.00
27984;BME280;15317;50.360;8.726;2023-05-10T17:58:03;99206.22;;;15.06;100.00
27984;BME280;15317;50.360;8.726;2023-05-10T18:03:06;99213.50;;;14.99;100.00
27984;BME280;15317;50.360;8.726;2023-05-10T18:08:11;99224.94;;;14.88;100.00
27984;BME280;15317;50.360;8.726;2023-05-10T18:13:14;99227.28;;;14.70;100.00
27984;BME280;15317;50.360;8.726;2023-05-10T18:18:17;99241.28;;;14.45;100.00
27984;BME280;15317;50.360;8.726;2023-05-10T18:23:22;99244.78;;;14.39;100.00
27984;BME280;15317;50.360;8.726;2023-05-10T18:28:26;99261.25;;;14.31;100.00
27984;BME280;15317;50.360;8.726;2023-05-10T18:33:29;99284.59;;;14.19;100.00
27984;BME280;15317;50.360;8.726;2023-05-10T18:38:34;99297.84;;;14.07;100.00
27984;BME280;15317;50.360;8.726;2023-05-10T18:43:37;99303.22;;;14.01;100.00
27984;BME280;15317;50.360;8.726;2023-05-10T18:48:41;99306.41;;;13.90;100.00
27984;BME280;15317;50.360;8.726;2023-05-10T18:53:45;99306.84;;;13.78;100.00
27984;BME280;15317;50.360;8.726;2023-05-10T18:58:49;99320.75;;;13.69;100.00
27984;BME280;15317;50.360;8.726;2023-05-10T19:03:52;99320.94;;;13.67;100.00
27984;BME280;15317;50.360;8.726;2023-05-10T19:08:57;99322.34;;;13.63;100.00
27984;BME280;15317;50.360;8.726;2023-05-10T19:14:00;99328.56;;;13.57;100.00
27984;BME280;15317;50.360;8.726;2023-05-10T19:19:03;99323.16;;;13.49;100.00
27984;BME280;15317;50.360;8.726;2023-05-10T19:24:09;99331.56;;;13.39;100.00
27984;BME280;15317;50.360;8.726;2023-05-10T19:29:13;99333.50;;;13.31;100.00
27984;BME280;15317;50.360;8.726;2023-05-10T19:34:17;99342.72;;;13.30;100.00
27984;BME280;15317;50.360;8.726;2023-05-10T19:39:21;99349.25;;;13.21;100.00
27984;BME280;15317;50.360;8.726;2023-05-10T19:44:24;99352.00;;;13.21;100.00
27984;BME280;15317;50.360;8.726;2023-05-10T19:49:27;99360.50;;;13.18;100.00
27984;BME280;15317;50.360;8.726;2023-05-10T19:54:32;99348.59;;;13.11;100.00
27984;BME280;15317;50.360;8.726;2023-05-10T19:59:35;99352.03;;;13.04;100.00
27984;BME280;15317;50.360;8.726;2023-05-10T20:04:38;99337.38;;;13.05;100.00
27984;BME280;15317;50.360;8.726;2023-05-10T20:09:43;99337.41;;;12.97;100.00
27984;BME280;15317;50.360;8.726;2023-05-10T20:14:46;99336.81;;;12.87;100.00
27984;BME280;15317;50.360;8.726;2023-05-10T20:19:49;99337.00;;;12.78;100.00
27984;BME280;15317;50.360;8.726;2023-05-10T20:24:54;99340.13;;;12.75;100.00
27984;BME280;15317;50.360;8.726;2023-05-10T20:29:59;99347.78;;;12.71;100.00
27984;BME280;15317;50.360;8.726;2023-05-10T20:35:03;99342.34;;;12.63;100.00
27984;BME280;15317;50.360;8.726;2023-05-10T20:40:08;99348.84;;;12.62;100.00
27984;BME280;15317;50.360;8.726;2023-05-10T20:45:12;99342.03;;;12.58;100.00
27984;BME280;15317;50.360;8.726;2023-05-10T20:50:15;99344.47;;;12.45;100.00
27984;BME280;15317;50.360;8.726;2023-05-10T20:55:20;99331.03;;;12.43;100.00
27984;BME280;15317;50.360;8.726;2023-05-10T21:00:23;99331.25;;;12.34;100.00
27984;BME280;15317;50.360;8.726;2023-05-10T21:05:26;99331.59;;;12.22;100.00
27984;BME280;15317;50.360;8.726;2023-05-10T21:10:31;99321.09;;;12.11;100.00
27984;BME280;15317;50.360;8.726;2023-05-10T21:15:35;99321.47;;;12.00;100.00
27984;BME280;15317;50.360;8.726;2023-05-10T21:20:38;99322.13;;;11.94;100.00
27984;BME280;15317;50.360;8.726;2023-05-10T21:25:42;99310.91;;;11.81;100.00
27984;BME280;15317;50.360;8.726;2023-05-10T21:30:45;99308.38;;;11.63;100.00
27984;BME280;15317;50.360;8.726;2023-05-10T21:35:49;99327.56;;;11.54;100.00
27984;BME280;15317;50.360;8.726;2023-05-10T21:40:53;99325.19;;;11.42;100.00
27984;BME280;15317;50.360;8.726;2023-05-10T21:45:57;99334.91;;;11.45;100.00
27984;BME280;15317;50.360;8.726;2023-05-10T21:51:00;99327.59;;;11.45;100.00
27984;BME280;15317;50.360;8.726;2023-05-10T21:56:05;99324.53;;;11.48;100.00
27984;BME280;15317;50.360;8.726;2023-05-10T22:01:09;99327.91;;;11.34;100.00
27984;BME280;15317;50.360;8.726;2023-05-10T22:06:12;99330.97;;;11.23;100.00
27984;BME280;15317;50.360;8.726;2023-05-10T22:11:17;99331.63;;;11.17;100.00
27984;BME280;15317;50.360;8.726;2023-05-10T22:16:20;99334.34;;;11.17;100.00
27984;BME280;15317;50.360;8.726;2023-05-10T22:21:23;99336.72;;;11.12;100.00
27984;BME280;15317;50.360;8.726;2023-05-10T22:26:28;99337.22;;;11.07;100.00
27984;BME280;15317;50.360;8.726;2023-05-10T22:31:32;99343.97;;;10.95;100.00
27984;BME280;15317;50.360;8.726;2023-05-10T22:36:35;99339.06;;;10.91;100.00
27984;BME280;15317;50.360;8.726;2023-05-10T22:41:40;99343.78;;;10.81;100.00
27984;BME280;15317;50.360;8.726;2023-05-10T22:46:43;99340.50;;;10.69;100.00
27984;BME280;15317;50.360;8.726;2023-05-10T22:51:47;99344.06;;;10.69;100.00
27984;BME280;15317;50.360;8.726;2023-05-10T22:56:51;99347.25;;;10.57;100.00
27984;BME280;15317;50.360;8.726;2023-05-10T23:01:55;99346.31;;;10.40;100.00
27984;BME280;15317;50.360;8.726;2023-05-10T23:06:58;99349.72;;;10.42;100.00
27984;BME280;15317;50.360;8.726;2023-05-10T23:12:03;99357.34;;;10.39;100.00
27984;BME280;15317;50.360;8.726;2023-05-10T23:17:07;99361.06;;;10.38;100.00
27984;BME280;15317;50.360;8.726;2023-05-10T23:22:10;99371.41;;;10.34;100.00
27984;BME280;15317;50.360;8.726;2023-05-10T23:27:14;99365.28;;;10.32;100.00
27984;BME280;15317;50.360;8.726;2023-05-10T23:32:18;99361.56;;;10.33;100.00
27984;BME280;15317;50.360;8.726;2023-05-10T23:37:21;99366.34;;;10.39;100.00
27984;BME280;15317;50.360;8.726;2023-05-10T23:42:25;99367.94;;;10.50;100.00
27984;BME280;15317;50.360;8.726;2023-05-10T23:47:28;99360.13;;;10.55;100.00
27984;BME280;15317;50.360;8.726;2023-05-10T23:52:32;99371.19;;;10.61;100.00
27984;BME280;15317;50.360;8.726;2023-05-10T23:57:36;99370.84;;;10.64;100.00
